Time;durP1;ratioP1;P1;durP2;ratioP2;P2;SDS_P1;SDS_P2;PMS_P1;PMS_P2;Temp;Humidity;BMP_temperature;BMP_pressure;BME280_temperature;BME280_humidity;BME280_pressure;Samples;Min_cycle;Max_cycle;Signal;HPM_P1;HPM_P2
2022/06/15 00:00:08;;;;;;;0.00;0.00;;;;;;;;;;1738757;28;20218;-61
2022/06/15 00:01:00;;;;;;;0.00;0.00;;;;;;;;;;1737156;28;20321;-61
2022/06/15 00:01:53;;;;;;;0.00;0.00;;;;;;;;;;1738650;28;20728;-61
2022/06/15 00:02:44;;;;;;;0.00;0.00;;;;;;;;;;1738106;28;20502;-62
2022/06/15 00:03:37;;;;;;;0.00;0.00;;;;;;;;;;1741079;28;20209;-61
2022/06/15 00:04:31;;;;;;;0.00;0.00;;;;;;;;;;1737619;28;20253;-61
2022/06/15 00:05:23;;;;;;;0.00;0.00;;;;;;;;;;1737115;28;20203;-61
2022/06/15 00:06:15;;;;;;;0.00;0.00;;;;;;;;;;1739228;28;20294;-61
2022/06/15 00:07:08;;;;;;;0.00;0.00;;;;;;;;;;1740889;28;20202;-61
2022/06/15 00:07:59;;;;;;;0.00;0.00;;;;;;;;;;1738813;28;20684;-61
2022/06/15 00:08:54;;;;;;;0.00;0.00;;;;;;;;;;1738832;28;20700;-61
2022/06/15 00:09:46;;;;;;;0.00;0.00;;;;;;;;;;1738511;28;20218;-62
2022/06/15 00:10:39;;;;;;;0.00;0.00;;;;;;;;;;1736691;28;20656;-61
2022/06/15 00:11:32;;;;;;;0.00;0.00;;;;;;;;;;1738788;28;20206;-61
2022/06/15 00:12:25;;;;;;;0.00;0.00;;;;;;;;;;1739086;28;20428;-61
2022/06/15 00:13:17;;;;;;;0.00;0.00;;;;;;;;;;1738440;28;20219;-61
2022/06/15 00:14:10;;;;;;;0.00;0.00;;;;;;;;;;1738841;28;20490;-61
2022/06/15 00:15:01;;;;;;;0.00;0.00;;;;;;;;;;1741323;28;20265;-61
2022/06/15 00:15:53;;;;;;;0.00;0.00;;;;;;;;;;1737088;28;20269;-61
2022/06/15 00:16:45;;;;;;;0.00;0.00;;;;;;;;;;1740570;28;20351;-62
2022/06/15 00:17:37;;;;;;;0.00;0.00;;;;;;;;;;1738588;28;20210;-62
2022/06/15 00:18:28;;;;;;;0.00;0.00;;;;;;;;;;1738625;28;20207;-62
2022/06/15 00:19:21;;;;;;;0.00;0.00;;;;;;;;;;1738679;28;20289;-61
2022/06/15 00:20:12;;;;;;;0.00;0.00;;;;;;;;;;1737314;28;20289;-62
2022/06/15 00:21:05;;;;;;;0.00;0.00;;;;;;;;;;1738763;28;20337;-62
2022/06/15 00:21:56;;;;;;;0.00;0.00;;;;;;;;;;1738827;28;20712;-61
2022/06/15 00:22:49;;;;;;;0.00;0.00;;;;;;;;;;1738243;28;20207;-62
2022/06/15 00:23:40;;;;;;;0.00;0.00;;;;;;;;;;1738321;28;20202;-61
2022/06/15 00:24:32;;;;;;;0.00;0.00;;;;;;;;;;1739392;28;20203;-61
2022/06/15 00:25:25;;;;;;;0.00;0.00;;;;;;;;;;1734363;28;20203;-61
2022/06/15 00:26:17;;;;;;;0.00;0.00;;;;;;;;;;1738653;28;20616;-61
2022/06/15 00:27:08;;;;;;;0.00;0.00;;;;;;;;;;1738706;28;20267;-61
2022/06/15 00:28:02;;;;;;;0.00;0.00;;;;;;;;;;1739585;28;20661;-61
2022/06/15 00:28:53;;;;;;;0.00;0.00;;;;;;;;;;1739345;28;20581;-61
2022/06/15 00:29:45;;;;;;;0.00;0.00;;;;;;;;;;1739640;28;20230;-61
2022/06/15 00:30:37;;;;;;;0.00;0.00;;;;;;;;;;1738183;28;20252;-61
2022/06/15 00:31:28;;;;;;;0.00;0.00;;;;;;;;;;1740637;28;20803;-61
2022/06/15 00:32:20;;;;;;;0.00;0.00;;;;;;;;;;1738956;28;20583;-61
2022/06/15 00:33:12;;;;;;;0.00;0.00;;;;;;;;;;1741069;28;20360;-61
2022/06/15 00:34:05;;;;;;;0.00;0.00;;;;;;;;;;1731515;28;20204;-61
2022/06/15 00:34:56;;;;;;;0.00;0.00;;;;;;;;;;1737243;28;20931;-61
2022/06/15 00:35:55;;;;;;;0.00;0.00;;;;;;;;;;1736393;28;20293;-61
2022/06/15 00:36:48;;;;;;;0.00;0.00;;;;;;;;;;1741953;28;20767;-61
2022/06/15 00:37:39;;;;;;;0.00;0.00;;;;;;;;;;1738705;28;20953;-61
2022/06/15 00:38:32;;;;;;;0.00;0.00;;;;;;;;;;1741216;28;20289;-61
2022/06/15 00:39:23;;;;;;;0.00;0.00;;;;;;;;;;1738658;28;20286;-61
2022/06/15 00:40:15;;;;;;;0.00;0.00;;;;;;;;;;1736940;28;20345;-61
2022/06/15 00:41:08;;;;;;;0.00;0.00;;;;;;;;;;1737495;28;20199;-61
2022/06/15 00:42:00;;;;;;;0.00;0.00;;;;;;;;;;1740794;28;20209;-61
2022/06/15 00:42:52;;;;;;;0.00;0.00;;;;;;;;;;1739040;28;20215;-61
2022/06/15 00:43:46;;;;;;;0.00;0.00;;;;;;;;;;1741385;28;20671;-61
2022/06/15 00:44:38;;;;;;;0.00;0.00;;;;;;;;;;1739114;28;20673;-61
2022/06/15 00:45:31;;;;;;;0.00;0.00;;;;;;;;;;1739156;28;20315;-61
2022/06/15 00:46:24;;;;;;;0.00;0.00;;;;;;;;;;1739566;28;20195;-61
2022/06/15 00:47:20;;;;;;;0.00;0.00;;;;;;;;;;1739477;28;20225;-61
2022/06/15 00:48:11;;;;;;;0.00;0.00;;;;;;;;;;1738258;28;20567;-61
2022/06/15 00:49:06;;;;;;;0.00;0.00;;;;;;;;;;1738709;28;20288;-61
2022/06/15 00:49:58;;;;;;;0.00;0.00;;;;;;;;;;1739186;28;20261;-61
2022/06/15 00:50:51;;;;;;;0.00;0.00;;;;;;;;;;1736903;28;20235;-61
2022/06/15 00:51:43;;;;;;;0.00;0.00;;;;;;;;;;1738035;28;20199;-61
2022/06/15 00:52:39;;;;;;;0.00;0.00;;;;;;;;;;1738518;28;20199;-62
2022/06/15 00:53:30;;;;;;;0.00;0.00;;;;;;;;;;1737822;28;20519;-61
2022/06/15 00:54:23;;;;;;;0.00;0.00;;;;;;;;;;1737188;28;20199;-61
2022/06/15 00:55:16;;;;;;;0.00;0.00;;;;;;;;;;1737334;28;20276;-61
2022/06/15 00:56:09;;;;;;;0.00;0.00;;;;;;;;;;1738418;28;20282;-61
2022/06/15 00:57:02;;;;;;;0.00;0.00;;;;;;;;;;1738172;28;20680;-62
2022/06/15 00:57:54;;;;;;;0.00;0.00;;;;;;;;;;1739178;28;20230;-61
2022/06/15 00:58:49;;;;;;;0.00;0.00;;;;;;;;;;1738560;28;20670;-61
2022/06/15 00:59:44;;;;;;;0.00;0.00;;;;;;;;;;1738217;28;20689;-62
2022/06/15 01:00:35;;;;;;;0.00;0.00;;;;;;;;;;1736138;28;20321;-61
2022/06/15 01:01:28;;;;;;;0.00;0.00;;;;;;;;;;1740070;28;20293;-61
2022/06/15 01:02:19;;;;;;;0.00;0.00;;;;;;;;;;1738441;28;20286;-62
2022/06/15 01:03:12;;;;;;;0.00;0.00;;;;;;;;;;1738148;28;20272;-61
2022/06/15 01:04:04;;;;;;;0.00;0.00;;;;;;;;;;1738330;28;20352;-62
2022/06/15 01:04:59;;;;;;;0.00;0.00;;;;;;;;;;1728352;28;20214;-61
2022/06/15 01:05:53;;;;;;;0.00;0.00;;;;;;;;;;1723552;28;20351;-61
2022/06/15 01:06:50;;;;;;;0.00;0.00;;;;;;;;;;1726768;28;20196;-62
2022/06/15 01:07:58;;;;;;;0.00;0.00;;;;;;;;;;1724730;28;20230;-62
2022/06/15 01:08:54;;;;;;;0.00;0.00;;;;;;;;;;1727012;28;20642;-61
2022/06/15 01:09:55;;;;;;;0.00;0.00;;;;;;;;;;1724447;28;20566;-61
2022/06/15 01:11:04;;;;;;;0.00;0.00;;;;;;;;;;1716842;28;20233;-61
2022/06/15 01:11:59;;;;;;;0.00;0.00;;;;;;;;;;1724589;28;20205;-62
2022/06/15 01:12:56;;;;;;;0.00;0.00;;;;;;;;;;1724443;28;20294;-61
2022/06/15 01:13:56;;;;;;;0.00;0.00;;;;;;;;;;1721974;28;20239;-61
2022/06/15 01:15:09;;;;;;;0.00;0.00;;;;;;;;;;1724945;28;20258;-61
2022/06/15 01:16:04;;;;;;;0.00;0.00;;;;;;;;;;1712425;28;20336;-61
2022/06/15 01:17:00;;;;;;;0.00;0.00;;;;;;;;;;1724525;28;20288;-61
2022/06/15 01:17:57;;;;;;;0.00;0.00;;;;;;;;;;1724118;28;20346;-61
2022/06/15 01:18:52;;;;;;;0.00;0.00;;;;;;;;;;1722446;28;20236;-61
2022/06/15 01:19:58;;;;;;;0.00;0.00;;;;;;;;;;1725154;28;20350;-61
2022/06/15 01:20:56;;;;;;;0.00;0.00;;;;;;;;;;1714516;28;20754;-61
2022/06/15 01:21:50;;;;;;;0.00;0.00;;;;;;;;;;1727787;28;20207;-61
2022/06/15 01:22:57;;;;;;;0.00;0.00;;;;;;;;;;1724710;28;20258;-61
2022/06/15 01:24:14;;;;;;;0.00;0.00;;;;;;;;;;1709310;28;20209;-61
2022/06/15 01:25:15;;;;;;;0.00;0.00;;;;;;;;;;1709745;28;20202;-62
2022/06/15 01:26:31;;;;;;;0.00;0.00;;;;;;;;;;1722354;28;20452;-61
2022/06/15 01:27:31;;;;;;;0.00;0.00;;;;;;;;;;1712108;28;20712;-61
2022/06/15 01:28:30;;;;;;;0.00;0.00;;;;;;;;;;1726655;28;20250;-61
2022/06/15 01:29:34;;;;;;;0.00;0.00;;;;;;;;;;1724494;28;20185;-61
2022/06/15 01:30:30;;;;;;;0.00;0.00;;;;;;;;;;1720349;28;20243;-62
2022/06/15 01:31:31;;;;;;;0.00;0.00;;;;;;;;;;1725044;28;20216;-61
2022/06/15 01:32:25;;;;;;;0.00;0.00;;;;;;;;;;1724240;28;20303;-61
2022/06/15 01:33:26;;;;;;;0.00;0.00;;;;;;;;;;1727647;28;20230;-61
2022/06/15 01:34:21;;;;;;;0.00;0.00;;;;;;;;;;1724843;28;20189;-61
2022/06/15 01:35:15;;;;;;;0.00;0.00;;;;;;;;;;1723188;28;20307;-61
2022/06/15 01:36:13;;;;;;;0.00;0.00;;;;;;;;;;1724523;28;20185;-61
2022/06/15 01:37:09;;;;;;;0.00;0.00;;;;;;;;;;1722115;28;20197;-61
2022/06/15 01:38:19;;;;;;;0.00;0.00;;;;;;;;;;1724994;28;20193;-61
2022/06/15 01:39:13;;;;;;;0.00;0.00;;;;;;;;;;1718514;28;20592;-62
2022/06/15 01:40:09;;;;;;;0.00;0.00;;;;;;;;;;1724328;28;20255;-61
2022/06/15 01:41:03;;;;;;;0.00;0.00;;;;;;;;;;1716663;28;20260;-61
2022/06/15 01:41:58;;;;;;;0.00;0.00;;;;;;;;;;1727617;28;20493;-61
2022/06/15 01:42:53;;;;;;;0.00;0.00;;;;;;;;;;1724263;28;20647;-61
2022/06/15 01:43:48;;;;;;;0.00;0.00;;;;;;;;;;1721763;28;20215;-61
2022/06/15 01:44:41;;;;;;;0.00;0.00;;;;;;;;;;1724296;28;20208;-61
2022/06/15 01:45:36;;;;;;;0.00;0.00;;;;;;;;;;1724589;28;20232;-61
2022/06/15 01:46:28;;;;;;;0.00;0.00;;;;;;;;;;1726353;28;20254;-61
2022/06/15 01:47:21;;;;;;;0.00;0.00;;;;;;;;;;1725151;28;20472;-61
2022/06/15 01:48:14;;;;;;;0.00;0.00;;;;;;;;;;1727502;28;20701;-61
2022/06/15 01:49:08;;;;;;;0.00;0.00;;;;;;;;;;1718040;28;20986;-61
2022/06/15 01:50:02;;;;;;;0.00;0.00;;;;;;;;;;1723776;28;20738;-61
2022/06/15 01:50:55;;;;;;;0.00;0.00;;;;;;;;;;1722308;28;20270;-61
2022/06/15 01:51:48;;;;;;;0.00;0.00;;;;;;;;;;1726857;28;20309;-61
2022/06/15 01:52:43;;;;;;;0.00;0.00;;;;;;;;;;1724759;28;20219;-61
2022/06/15 01:53:35;;;;;;;0.00;0.00;;;;;;;;;;1724114;28;20193;-61
2022/06/15 01:54:30;;;;;;;0.00;0.00;;;;;;;;;;1724453;28;20204;-61
2022/06/15 01:55:23;;;;;;;0.00;0.00;;;;;;;;;;1723029;28;20200;-61
2022/06/15 01:56:17;;;;;;;0.00;0.00;;;;;;;;;;1724213;28;20192;-61
2022/06/15 01:57:10;;;;;;;0.00;0.00;;;;;;;;;;1725302;28;20286;-61
2022/06/15 01:58:04;;;;;;;0.00;0.00;;;;;;;;;;1725501;28;20532;-61
2022/06/15 01:58:58;;;;;;;0.00;0.00;;;;;;;;;;1725690;28;20283;-62
2022/06/15 01:59:53;;;;;;;0.00;0.00;;;;;;;;;;1724375;28;20266;-61
2022/06/15 02:00:49;;;;;;;0.00;0.00;;;;;;;;;;1717910;28;20674;-61
2022/06/15 02:01:47;;;;;;;0.00;0.00;;;;;;;;;;1724805;28;20465;-61
2022/06/15 02:02:45;;;;;;;0.00;0.00;;;;;;;;;;1724132;28;20736;-61
2022/06/15 02:03:39;;;;;;;0.00;0.00;;;;;;;;;;1723469;28;20691;-61
2022/06/15 02:04:34;;;;;;;0.00;0.00;;;;;;;;;;1731356;28;20238;-62
2022/06/15 02:05:29;;;;;;;0.00;0.00;;;;;;;;;;1729788;28;20249;-61
2022/06/15 02:06:26;;;;;;;0.00;0.00;;;;;;;;;;1734759;28;20278;-61
2022/06/15 02:07:26;;;;;;;0.00;0.00;;;;;;;;;;1738459;28;20708;-62
2022/06/15 02:08:22;;;;;;;0.00;0.00;;;;;;;;;;1740525;28;20198;-61
2022/06/15 02:09:17;;;;;;;0.00;0.00;;;;;;;;;;1737875;28;20550;-61
2022/06/15 02:10:13;;;;;;;0.00;0.00;;;;;;;;;;1739682;28;20244;-61
2022/06/15 02:11:06;;;;;;;0.00;0.00;;;;;;;;;;1737589;28;20611;-61
2022/06/15 02:11:59;;;;;;;0.00;0.00;;;;;;;;;;1738960;28;20202;-61
2022/06/15 02:12:55;;;;;;;0.00;0.00;;;;;;;;;;1737860;28;20245;-61
2022/06/15 02:13:48;;;;;;;0.00;0.00;;;;;;;;;;1735486;28;20206;-61
2022/06/15 02:14:42;;;;;;;0.00;0.00;;;;;;;;;;1738114;28;20238;-62
2022/06/15 02:15:35;;;;;;;0.00;0.00;;;;;;;;;;1736009;28;20237;-61
2022/06/15 02:16:30;;;;;;;0.00;0.00;;;;;;;;;;1739546;28;20233;-61
2022/06/15 02:17:24;;;;;;;0.00;0.00;;;;;;;;;;1738428;28;20243;-61
2022/06/15 02:18:19;;;;;;;0.00;0.00;;;;;;;;;;1740717;28;20588;-61
2022/06/15 02:19:16;;;;;;;0.00;0.00;;;;;;;;;;1738182;28;20203;-61
2022/06/15 02:20:11;;;;;;;0.00;0.00;;;;;;;;;;1737396;28;20562;-61
2022/06/15 02:21:05;;;;;;;0.00;0.00;;;;;;;;;;1737513;28;20600;-61
2022/06/15 02:21:57;;;;;;;0.00;0.00;;;;;;;;;;1740168;28;20198;-61
2022/06/15 02:22:49;;;;;;;0.00;0.00;;;;;;;;;;1737617;28;20679;-61
2022/06/15 02:23:42;;;;;;;0.00;0.00;;;;;;;;;;1740878;28;20613;-61
2022/06/15 02:24:34;;;;;;;0.00;0.00;;;;;;;;;;1737483;28;20737;-61
2022/06/15 02:25:28;;;;;;;0.00;0.00;;;;;;;;;;1739263;28;20665;-61
2022/06/15 02:26:21;;;;;;;0.00;0.00;;;;;;;;;;1738511;28;20241;-61
2022/06/15 02:27:14;;;;;;;0.00;0.00;;;;;;;;;;1738343;28;20484;-61
2022/06/15 02:28:05;;;;;;;0.00;0.00;;;;;;;;;;1737465;28;20210;-61
2022/06/15 02:29:05;;;;;;;0.00;0.00;;;;;;;;;;1737644;28;20245;-61
2022/06/15 02:29:59;;;;;;;0.00;0.00;;;;;;;;;;1737512;28;20298;-61
2022/06/15 02:30:51;;;;;;;0.00;0.00;;;;;;;;;;1736323;28;20234;-62
2022/06/15 02:31:44;;;;;;;0.00;0.00;;;;;;;;;;1740614;28;20209;-61
2022/06/15 02:32:37;;;;;;;0.00;0.00;;;;;;;;;;1738006;28;20214;-61
2022/06/15 02:33:29;;;;;;;0.00;0.00;;;;;;;;;;1737885;28;20590;-61
2022/06/15 02:34:21;;;;;;;0.00;0.00;;;;;;;;;;1737381;28;20195;-61
2022/06/15 02:35:14;;;;;;;0.00;0.00;;;;;;;;;;1735883;28;20260;-61
2022/06/15 02:36:06;;;;;;;0.00;0.00;;;;;;;;;;1737698;28;20652;-61
2022/06/15 02:36:58;;;;;;;0.00;0.00;;;;;;;;;;1737409;28;20234;-62
2022/06/15 02:37:51;;;;;;;0.00;0.00;;;;;;;;;;1737810;28;20214;-61
2022/06/15 02:38:44;;;;;;;0.00;0.00;;;;;;;;;;1738018;28;20650;-61
2022/06/15 02:39:36;;;;;;;0.00;0.00;;;;;;;;;;1738466;28;20199;-61
2022/06/15 02:40:28;;;;;;;0.00;0.00;;;;;;;;;;1730840;28;20385;-61
2022/06/15 02:41:21;;;;;;;0.00;0.00;;;;;;;;;;1734085;28;20655;-61
2022/06/15 02:42:24;;;;;;;0.00;0.00;;;;;;;;;;1738357;28;20641;-61
2022/06/15 02:43:18;;;;;;;0.00;0.00;;;;;;;;;;1737866;28;20215;-61
2022/06/15 02:44:11;;;;;;;0.00;0.00;;;;;;;;;;1738086;28;20212;-61
2022/06/15 02:45:05;;;;;;;0.00;0.00;;;;;;;;;;1737520;28;20479;-61
2022/06/15 02:45:58;;;;;;;0.00;0.00;;;;;;;;;;1736518;28;20238;-61
2022/06/15 02:46:52;;;;;;;0.00;0.00;;;;;;;;;;1739835;28;20981;-61
2022/06/15 02:47:43;;;;;;;0.00;0.00;;;;;;;;;;1737095;28;20298;-61
2022/06/15 02:48:36;;;;;;;0.00;0.00;;;;;;;;;;1737871;28;20199;-61
2022/06/15 02:49:27;;;;;;;0.00;0.00;;;;;;;;;;1737695;28;20731;-61
2022/06/15 02:50:21;;;;;;;0.00;0.00;;;;;;;;;;1736527;28;20203;-61
2022/06/15 02:51:17;;;;;;;0.00;0.00;;;;;;;;;;1737943;28;20301;-61
2022/06/15 02:52:10;;;;;;;0.00;0.00;;;;;;;;;;1738048;28;20341;-61
2022/06/15 02:53:03;;;;;;;0.00;0.00;;;;;;;;;;1738149;28;20288;-61
2022/06/15 02:53:58;;;;;;;0.00;0.00;;;;;;;;;;1737480;28;20207;-62
2022/06/15 02:54:51;;;;;;;0.00;0.00;;;;;;;;;;1738835;28;20659;-61
2022/06/15 02:55:44;;;;;;;0.00;0.00;;;;;;;;;;1736331;28;20223;-61
2022/06/15 02:56:35;;;;;;;0.00;0.00;;;;;;;;;;1737833;28;20199;-61
2022/06/15 02:57:28;;;;;;;0.00;0.00;;;;;;;;;;1737804;28;20254;-61
2022/06/15 02:58:23;;;;;;;0.00;0.00;;;;;;;;;;1740784;28;20210;-61
2022/06/15 02:59:16;;;;;;;0.00;0.00;;;;;;;;;;1737401;28;20203;-61
2022/06/15 03:00:08;;;;;;;0.05;0.05;;;;;;;;;;1736366;28;20214;-61
2022/06/15 03:01:01;;;;;;;0.00;0.00;;;;;;;;;;1737066;28;20779;-62
2022/06/15 03:01:54;;;;;;;0.00;0.00;;;;;;;;;;1739025;28;20333;-61
2022/06/15 03:02:46;;;;;;;0.00;0.00;;;;;;;;;;1737611;28;20206;-61
2022/06/15 03:03:38;;;;;;;0.00;0.00;;;;;;;;;;1737584;28;20230;-61
2022/06/15 03:04:30;;;;;;;0.00;0.00;;;;;;;;;;1737379;28;20690;-61
2022/06/15 03:05:22;;;;;;;0.00;0.00;;;;;;;;;;1738286;28;20207;-61
2022/06/15 03:06:15;;;;;;;0.00;0.00;;;;;;;;;;1737407;28;20203;-61
2022/06/15 03:07:07;;;;;;;0.00;0.00;;;;;;;;;;1738060;28;20207;-61
2022/06/15 03:08:00;;;;;;;0.00;0.00;;;;;;;;;;1738230;28;20582;-61
2022/06/15 03:08:51;;;;;;;0.00;0.00;;;;;;;;;;1739794;28;20736;-61
2022/06/15 03:09:43;;;;;;;0.00;0.00;;;;;;;;;;1737972;28;20206;-61
2022/06/15 03:10:34;;;;;;;0.00;0.00;;;;;;;;;;1735628;28;20239;-61
2022/06/15 03:11:27;;;;;;;0.00;0.00;;;;;;;;;;1739942;28;20194;-61
2022/06/15 03:12:18;;;;;;;0.00;0.00;;;;;;;;;;1738126;28;20294;-61
2022/06/15 03:13:11;;;;;;;0.00;0.00;;;;;;;;;;1738055;28;20223;-62
2022/06/15 03:14:02;;;;;;;0.00;0.00;;;;;;;;;;1738758;28;20230;-62
2022/06/15 03:14:54;;;;;;;0.00;0.00;;;;;;;;;;1739570;28;20203;-61
2022/06/15 03:15:46;;;;;;;0.00;0.00;;;;;;;;;;1737396;28;20238;-61
2022/06/15 03:16:41;;;;;;;0.00;0.00;;;;;;;;;;1739234;28;20203;-61
2022/06/15 03:17:33;;;;;;;0.00;0.00;;;;;;;;;;1739202;28;20701;-61
2022/06/15 03:18:25;;;;;;;0.00;0.00;;;;;;;;;;1741416;28;20213;-62
2022/06/15 03:19:17;;;;;;;0.00;0.00;;;;;;;;;;1739322;28;20340;-61
2022/06/15 03:20:10;;;;;;;0.00;0.00;;;;;;;;;;1738649;28;20551;-61
2022/06/15 03:21:02;;;;;;;0.03;0.03;;;;;;;;;;1738259;28;20325;-62
2022/06/15 03:21:54;;;;;;;0.00;0.00;;;;;;;;;;1742506;28;20297;-61
2022/06/15 03:22:45;;;;;;;0.00;0.00;;;;;;;;;;1739283;28;20310;-61
2022/06/15 03:23:38;;;;;;;0.00;0.00;;;;;;;;;;1739062;28;20234;-61
2022/06/15 03:24:29;;;;;;;0.00;0.00;;;;;;;;;;1738451;28;20203;-61
2022/06/15 03:25:22;;;;;;;0.00;0.00;;;;;;;;;;1740042;28;20273;-61
2022/06/15 03:26:13;;;;;;;0.00;0.00;;;;;;;;;;1738861;28;20195;-61
2022/06/15 03:27:05;;;;;;;0.00;0.00;;;;;;;;;;1736203;28;20209;-61
2022/06/15 03:27:57;;;;;;;0.00;0.00;;;;;;;;;;1739582;28;20364;-61
2022/06/15 03:28:49;;;;;;;0.00;0.00;;;;;;;;;;1741260;28;20207;-61
2022/06/15 03:29:42;;;;;;;0.00;0.00;;;;;;;;;;1739779;28;20330;-61
2022/06/15 03:30:34;;;;;;;0.00;0.00;;;;;;;;;;1737991;28;20668;-61
2022/06/15 03:31:27;;;;;;;0.00;0.00;;;;;;;;;;1741538;28;20297;-61
2022/06/15 03:32:19;;;;;;;0.00;0.00;;;;;;;;;;1740358;28;20530;-61
2022/06/15 03:33:12;;;;;;;0.00;0.00;;;;;;;;;;1741260;28;20507;-61
2022/06/15 03:34:04;;;;;;;0.00;0.00;;;;;;;;;;1739226;28;20298;-61
2022/06/15 03:34:55;;;;;;;0.00;0.00;;;;;;;;;;1742051;28;20262;-62
2022/06/15 03:35:48;;;;;;;0.00;0.00;;;;;;;;;;1737621;28;20226;-61
2022/06/15 03:36:39;;;;;;;0.00;0.00;;;;;;;;;;1738735;28;20237;-61
2022/06/15 03:37:31;;;;;;;0.00;0.00;;;;;;;;;;1738609;28;20276;-61
2022/06/15 03:38:22;;;;;;;0.00;0.00;;;;;;;;;;1742066;28;20241;-61
2022/06/15 03:39:15;;;;;;;0.10;0.10;;;;;;;;;;1739228;28;20281;-61
2022/06/15 03:40:08;;;;;;;0.00;0.00;;;;;;;;;;1739220;28;20665;-62
2022/06/15 03:41:00;;;;;;;0.00;0.00;;;;;;;;;;1737166;28;20238;-61
2022/06/15 03:41:51;;;;;;;0.00;0.00;;;;;;;;;;1738880;28;20215;-61
2022/06/15 03:42:43;;;;;;;0.00;0.00;;;;;;;;;;1738577;28;20357;-61
2022/06/15 03:43:35;;;;;;;0.00;0.00;;;;;;;;;;1737908;28;20293;-62
2022/06/15 03:44:27;;;;;;;0.00;0.00;;;;;;;;;;1739357;28;20686;-61
2022/06/15 03:45:18;;;;;;;0.00;0.00;;;;;;;;;;1739396;28;20256;-61
2022/06/15 03:46:12;;;;;;;0.00;0.00;;;;;;;;;;1739105;28;20290;-61
2022/06/15 03:47:03;;;;;;;0.00;0.00;;;;;;;;;;1738831;28;20289;-62
2022/06/15 03:47:56;;;;;;;0.00;0.00;;;;;;;;;;1738798;28;20298;-61
2022/06/15 03:48:49;;;;;;;0.00;0.00;;;;;;;;;;1739122;28;20764;-61
2022/06/15 03:49:41;;;;;;;0.00;0.00;;;;;;;;;;1737410;28;20689;-61
2022/06/15 03:50:33;;;;;;;0.00;0.00;;;;;;;;;;1737415;28;20663;-62
2022/06/15 03:51:25;;;;;;;0.00;0.00;;;;;;;;;;1740419;28;20199;-61
2022/06/15 03:52:17;;;;;;;0.00;0.00;;;;;;;;;;1739800;28;20203;-61
2022/06/15 03:53:10;;;;;;;0.00;0.00;;;;;;;;;;1739014;28;20333;-61
2022/06/15 03:54:02;;;;;;;0.00;0.00;;;;;;;;;;1738513;28;20271;-61
2022/06/15 03:54:55;;;;;;;0.00;0.00;;;;;;;;;;1738819;28;20209;-61
2022/06/15 03:55:46;;;;;;;0.00;0.00;;;;;;;;;;1731076;28;20330;-61
2022/06/15 03:56:42;;;;;;;0.00;0.00;;;;;;;;;;1739024;28;20214;-62
2022/06/15 03:57:34;;;;;;;0.00;0.00;;;;;;;;;;1738924;28;20227;-61
2022/06/15 03:58:26;;;;;;;0.10;0.10;;;;;;;;;;1741784;28;20194;-61
2022/06/15 03:59:17;;;;;;;0.00;0.00;;;;;;;;;;1738899;28;20286;-61
2022/06/15 04:00:11;;;;;;;0.00;0.00;;;;;;;;;;1738175;28;20199;-61
2022/06/15 04:01:02;;;;;;;0.00;0.00;;;;;;;;;;1738056;28;20223;-61
2022/06/15 04:01:56;;;;;;;0.00;0.00;;;;;;;;;;1737840;28;20571;-61
2022/06/15 04:02:47;;;;;;;0.00;0.00;;;;;;;;;;1738289;28;20256;-62
2022/06/15 04:03:39;;;;;;;0.00;0.00;;;;;;;;;;1738599;28;20213;-61
2022/06/15 04:04:32;;;;;;;0.00;0.00;;;;;;;;;;1738316;28;20724;-61
2022/06/15 04:05:27;;;;;;;0.00;0.00;;;;;;;;;;1737482;28;20539;-61
2022/06/15 04:06:18;;;;;;;0.00;0.00;;;;;;;;;;1738616;28;20200;-61
2022/06/15 04:08:38;;;;;;;0.10;0.10;;;;;;;;;;1739871;28;20202;-61
2022/06/15 04:09:30;;;;;;;0.00;0.00;;;;;;;;;;1738556;28;20692;-61
2022/06/15 04:10:21;;;;;;;0.00;0.00;;;;;;;;;;1737207;28;20294;-61
2022/06/15 04:11:58;;;;;;;0.00;0.00;;;;;;;;;;1739271;28;20183;-61
2022/06/15 04:12:26;;;;;;;0.00;0.00;;;;;;;;;;1732128;28;20217;-61
2022/06/15 04:13:20;;;;;;;0.00;0.00;;;;;;;;;;1740527;28;20218;-62
2022/06/15 04:14:13;;;;;;;0.00;0.00;;;;;;;;;;1738419;28;20203;-62
2022/06/15 04:15:04;;;;;;;0.00;0.00;;;;;;;;;;1738835;28;20207;-61
2022/06/15 04:15:57;;;;;;;0.00;0.00;;;;;;;;;;1737589;28;20304;-61
2022/06/15 04:16:53;;;;;;;0.00;0.00;;;;;;;;;;1738715;28;20755;-61
2022/06/15 04:17:45;;;;;;;0.00;0.00;;;;;;;;;;1738901;28;20242;-62
2022/06/15 04:18:37;;;;;;;0.00;0.00;;;;;;;;;;1741592;28;20207;-61
2022/06/15 04:19:30;;;;;;;0.00;0.00;;;;;;;;;;1738945;28;20277;-61
2022/06/15 04:20:33;;;;;;;0.00;0.00;;;;;;;;;;1739415;28;20206;-61
2022/06/15 04:21:25;;;;;;;0.00;0.00;;;;;;;;;;1740112;28;20252;-61
2022/06/15 04:22:16;;;;;;;0.00;0.00;;;;;;;;;;1740394;28;20238;-61
2022/06/15 04:23:11;;;;;;;0.00;0.00;;;;;;;;;;1738658;28;20309;-61
2022/06/15 04:24:02;;;;;;;0.00;0.00;;;;;;;;;;1738576;28;20222;-61
2022/06/15 04:24:55;;;;;;;0.00;0.00;;;;;;;;;;1741249;28;20214;-61
2022/06/15 04:25:47;;;;;;;0.00;0.00;;;;;;;;;;1743902;28;20242;-61
2022/06/15 04:26:39;;;;;;;0.00;0.00;;;;;;;;;;1739446;28;20496;-61
2022/06/15 04:27:32;;;;;;;0.00;0.00;;;;;;;;;;1738490;28;20199;-61
2022/06/15 04:28:24;;;;;;;0.00;0.00;;;;;;;;;;1738398;28;20305;-61
2022/06/15 04:29:16;;;;;;;0.00;0.00;;;;;;;;;;1738685;28;20207;-62
2022/06/15 04:30:09;;;;;;;0.00;0.00;;;;;;;;;;1740628;28;20232;-62
2022/06/15 04:31:00;;;;;;;0.00;0.00;;;;;;;;;;1737895;28;20235;-62
2022/06/15 04:31:53;;;;;;;0.00;0.00;;;;;;;;;;1741776;28;20205;-61
2022/06/15 04:32:44;;;;;;;0.00;0.00;;;;;;;;;;1738274;28;20680;-62
2022/06/15 04:33:37;;;;;;;0.00;0.00;;;;;;;;;;1737844;28;20199;-61
2022/06/15 04:34:28;;;;;;;0.00;0.00;;;;;;;;;;1739184;28;20757;-62
2022/06/15 04:35:20;;;;;;;0.00;0.00;;;;;;;;;;1738850;28;20277;-62
2022/06/15 04:36:13;;;;;;;0.00;0.00;;;;;;;;;;1739221;28;20320;-62
2022/06/15 04:37:06;;;;;;;0.00;0.00;;;;;;;;;;1738588;28;20271;-62
2022/06/15 04:37:57;;;;;;;0.00;0.00;;;;;;;;;;1738726;28;20987;-61
2022/06/15 04:38:49;;;;;;;0.00;0.00;;;;;;;;;;1741170;28;20234;-61
2022/06/15 04:39:40;;;;;;;0.00;0.00;;;;;;;;;;1737451;28;20495;-61
2022/06/15 04:40:33;;;;;;;0.00;0.00;;;;;;;;;;1737068;28;20226;-62
2022/06/15 04:41:24;;;;;;;0.00;0.00;;;;;;;;;;1739376;28;20643;-61
2022/06/15 04:42:17;;;;;;;0.00;0.00;;;;;;;;;;1739795;28;20234;-61
2022/06/15 04:43:08;;;;;;;0.00;0.00;;;;;;;;;;1738808;28;20219;-61
2022/06/15 04:44:01;;;;;;;0.00;0.00;;;;;;;;;;1738437;28;20210;-62
2022/06/15 04:44:52;;;;;;;0.00;0.00;;;;;;;;;;1738332;28;20657;-61
2022/06/15 04:45:44;;;;;;;0.00;0.00;;;;;;;;;;1736310;28;20264;-61
2022/06/15 04:46:36;;;;;;;0.00;0.00;;;;;;;;;;1740916;28;20206;-62
2022/06/15 04:47:28;;;;;;;0.00;0.00;;;;;;;;;;1731612;28;20578;-61
2022/06/15 04:48:19;;;;;;;0.00;0.00;;;;;;;;;;1737414;28;20799;-61
2022/06/15 04:49:11;;;;;;;0.00;0.00;;;;;;;;;;1738813;28;20203;-62
2022/06/15 04:50:03;;;;;;;0.00;0.00;;;;;;;;;;1738298;28;20260;-62
2022/06/15 04:50:55;;;;;;;0.05;0.05;;;;;;;;;;1737162;28;20300;-61
2022/06/15 04:51:48;;;;;;;0.00;0.00;;;;;;;;;;1741007;28;20293;-62
2022/06/15 04:52:41;;;;;;;0.00;0.00;;;;;;;;;;1738048;28;20294;-61
2022/06/15 04:53:33;;;;;;;0.00;0.00;;;;;;;;;;1738409;28;20199;-62
2022/06/15 04:54:24;;;;;;;0.00;0.00;;;;;;;;;;1738219;28;20900;-62
2022/06/15 04:55:19;;;;;;;0.00;0.00;;;;;;;;;;1740132;28;20198;-61
2022/06/15 04:56:10;;;;;;;0.00;0.00;;;;;;;;;;1738156;28;20196;-61
2022/06/15 04:57:02;;;;;;;0.00;0.00;;;;;;;;;;1741249;28;20202;-61
2022/06/15 04:57:54;;;;;;;0.00;0.00;;;;;;;;;;1738228;28;20250;-62
2022/06/15 04:58:47;;;;;;;0.00;0.00;;;;;;;;;;1740279;28;20613;-62
2022/06/15 04:59:38;;;;;;;0.00;0.00;;;;;;;;;;1738651;28;20226;-61
2022/06/15 05:00:31;;;;;;;0.00;0.00;;;;;;;;;;1738913;28;20661;-61
2022/06/15 05:01:23;;;;;;;0.00;0.00;;;;;;;;;;1738577;28;20336;-61
2022/06/15 05:02:15;;;;;;;0.00;0.00;;;;;;;;;;1738646;28;20287;-61
2022/06/15 05:03:06;;;;;;;0.00;0.00;;;;;;;;;;1739816;28;20605;-62
2022/06/15 05:03:59;;;;;;;0.00;0.00;;;;;;;;;;1738928;28;20443;-62
2022/06/15 05:04:50;;;;;;;0.00;0.00;;;;;;;;;;1739441;28;20294;-62
2022/06/15 05:05:42;;;;;;;0.00;0.00;;;;;;;;;;1737669;28;20253;-61
2022/06/15 05:06:34;;;;;;;0.00;0.00;;;;;;;;;;1737916;28;20203;-61
2022/06/15 05:07:28;;;;;;;0.00;0.00;;;;;;;;;;1738383;28;20380;-61
2022/06/15 05:08:19;;;;;;;0.00;0.00;;;;;;;;;;1740983;28;20442;-62
2022/06/15 05:09:12;;;;;;;0.00;0.00;;;;;;;;;;1738157;28;20198;-62
2022/06/15 05:10:04;;;;;;;0.00;0.00;;;;;;;;;;1737954;28;20272;-62
2022/06/15 05:10:58;;;;;;;0.10;0.10;;;;;;;;;;1735874;28;20322;-62
2022/06/15 05:11:49;;;;;;;0.00;0.00;;;;;;;;;;1741337;28;20206;-61
2022/06/15 05:12:41;;;;;;;0.00;0.00;;;;;;;;;;1738424;28;20233;-62
2022/06/15 05:13:33;;;;;;;0.00;0.00;;;;;;;;;;1740995;28;20675;-62
2022/06/15 05:14:25;;;;;;;0.00;0.00;;;;;;;;;;1738328;28;20233;-62
2022/06/15 05:15:17;;;;;;;0.00;0.00;;;;;;;;;;1736072;28;20199;-62
2022/06/15 05:16:09;;;;;;;0.00;0.00;;;;;;;;;;1738075;28;20187;-61
2022/06/15 05:17:00;;;;;;;0.00;0.00;;;;;;;;;;1737289;28;20227;-61
2022/06/15 05:17:53;;;;;;;0.00;0.00;;;;;;;;;;1738225;28;20835;-61
2022/06/15 05:18:44;;;;;;;0.00;0.00;;;;;;;;;;1738478;28;20546;-61
2022/06/15 05:19:36;;;;;;;0.00;0.00;;;;;;;;;;1738209;28;20439;-61
2022/06/15 05:20:28;;;;;;;0.00;0.00;;;;;;;;;;1729878;28;20749;-60
2022/06/15 05:21:20;;;;;;;0.00;0.00;;;;;;;;;;1734699;28;20191;-61
2022/06/15 05:22:11;;;;;;;0.00;0.00;;;;;;;;;;1740576;28;20306;-60